sensor_id;sensor_type;location;lat;lon;timestamp;pressure;altitude;pressure_sealevel;temperature;humidity
61394;BME280;48555;50.952;-0.120;2023-04-03T00:01:02;102525.75;;;6.51;68.23
61394;BME280;48555;50.952;-0.120;2023-04-03T00:03:27;102524.78;;;6.55;68.30
61394;BME280;48555;50.952;-0.120;2023-04-03T00:05:53;102529.13;;;6.54;68.35
61394;BME280;48555;50.952;-0.120;2023-04-03T00:08:18;102529.13;;;6.54;67.98
61394;BME280;48555;50.952;-0.120;2023-04-03T00:10:44;102531.84;;;6.50;68.06
61394;BME280;48555;50.952;-0.120;2023-04-03T00:13:10;102522.41;;;6.47;68.28
61394;BME280;48555;50.952;-0.120;2023-04-03T00:15:36;102519.00;;;6.44;68.47
61394;BME280;48555;50.952;-0.120;2023-04-03T00:18:02;102518.22;;;6.40;68.45
61394;BME280;48555;50.952;-0.120;2023-04-03T00:20:28;102521.75;;;6.37;68.61
61394;BME280;48555;50.952;-0.120;2023-04-03T00:22:54;102510.59;;;6.34;68.60
61394;BME280;48555;50.952;-0.120;2023-04-03T00:25:19;102514.91;;;6.35;68.55
61394;BME280;48555;50.952;-0.120;2023-04-03T00:27:45;102508.00;;;6.34;68.37
61394;BME280;48555;50.952;-0.120;2023-04-03T00:30:14;102514.09;;;6.33;68.53
61394;BME280;48555;50.952;-0.120;2023-04-03T00:32:40;102511.53;;;6.31;68.14
61394;BME280;48555;50.952;-0.120;2023-04-03T00:35:06;102505.50;;;6.29;68.29
61394;BME280;48555;50.952;-0.120;2023-04-03T00:37:31;102506.38;;;6.30;68.08
61394;BME280;48555;50.952;-0.120;2023-04-03T00:39:57;102500.38;;;6.28;68.12
61394;BME280;48555;50.952;-0.120;2023-04-03T00:42:23;102502.13;;;6.26;68.09
61394;BME280;48555;50.952;-0.120;2023-04-03T00:47:16;102498.84;;;6.21;67.83
61394;BME280;48555;50.952;-0.120;2023-04-03T00:49:42;102501.44;;;6.21;67.78
61394;BME280;48555;50.952;-0.120;2023-04-03T00:52:12;102505.59;;;6.26;67.84
61394;BME280;48555;50.952;-0.120;2023-04-03T00:54:41;102497.78;;;6.26;67.97
61394;BME280;48555;50.952;-0.120;2023-04-03T00:57:08;102497.88;;;6.23;67.48
61394;BME280;48555;50.952;-0.120;2023-04-03T00:59:36;102495.34;;;6.20;67.55
61394;BME280;48555;50.952;-0.120;2023-04-03T01:02:02;102497.94;;;6.20;67.45
61394;BME280;48555;50.952;-0.120;2023-04-03T01:04:29;102492.88;;;6.16;67.60
61394;BME280;48555;50.952;-0.120;2023-04-03T01:06:58;102499.09;;;6.10;67.90
61394;BME280;48555;50.952;-0.120;2023-04-03T01:09:26;102494.84;;;6.06;68.06
61394;BME280;48555;50.952;-0.120;2023-04-03T01:11:52;102507.97;;;6.01;68.03
61394;BME280;48555;50.952;-0.120;2023-04-03T01:14:18;102498.56;;;5.96;68.32
61394;BME280;48555;50.952;-0.120;2023-04-03T01:16:52;102499.50;;;5.91;68.19
61394;BME280;48555;50.952;-0.120;2023-04-03T01:19:18;102505.56;;;5.90;68.58
61394;BME280;48555;50.952;-0.120;2023-04-03T01:22:14;102504.81;;;5.87;68.58
61394;BME280;48555;50.952;-0.120;2023-04-03T01:24:42;102499.59;;;5.88;68.56
61394;BME280;48555;50.952;-0.120;2023-04-03T01:27:09;102497.00;;;5.88;68.32
61394;BME280;48555;50.952;-0.120;2023-04-03T01:29:35;102486.00;;;5.77;68.39
61394;BME280;48555;50.952;-0.120;2023-04-03T01:32:02;102500.38;;;5.90;68.44
61394;BME280;48555;50.952;-0.120;2023-04-03T01:34:29;102479.81;;;5.83;68.14
61394;BME280;48555;50.952;-0.120;2023-04-03T01:36:55;102487.41;;;5.90;68.27
61394;BME280;48555;50.952;-0.120;2023-04-03T01:39:21;102480.59;;;5.86;68.04
61394;BME280;48555;50.952;-0.120;2023-04-03T01:41:47;102483.19;;;5.86;68.02
61394;BME280;48555;50.952;-0.120;2023-04-03T01:44:13;102485.09;;;5.80;68.71
61394;BME280;48555;50.952;-0.120;2023-04-03T01:46:38;102476.63;;;5.70;68.54
61394;BME280;48555;50.952;-0.120;2023-04-03T01:49:04;102478.44;;;5.68;68.83
61394;BME280;48555;50.952;-0.120;2023-04-03T01:51:30;102471.72;;;5.59;69.25
61394;BME280;48555;50.952;-0.120;2023-04-03T01:53:56;102479.53;;;5.58;69.59
61394;BME280;48555;50.952;-0.120;2023-04-03T01:56:21;102476.16;;;5.54;69.74
61394;BME280;48555;50.952;-0.120;2023-04-03T01:58:47;102477.06;;;5.52;69.73
61394;BME280;48555;50.952;-0.120;2023-04-03T02:01:12;102472.91;;;5.44;69.90
61394;BME280;48555;50.952;-0.120;2023-04-03T02:03:37;102478.97;;;5.43;70.43
61394;BME280;48555;50.952;-0.120;2023-04-03T02:06:03;102486.75;;;5.45;70.34
61394;BME280;48555;50.952;-0.120;2023-04-03T02:08:28;102478.91;;;5.46;70.27
61394;BME280;48555;50.952;-0.120;2023-04-03T02:10:54;102477.13;;;5.49;70.11
61394;BME280;48555;50.952;-0.120;2023-04-03T02:13:20;102479.72;;;5.50;70.15
61394;BME280;48555;50.952;-0.120;2023-04-03T02:15:45;102484.03;;;5.50;69.91
61394;BME280;48555;50.952;-0.120;2023-04-03T02:18:11;102481.50;;;5.46;70.43
61394;BME280;48555;50.952;-0.120;2023-04-03T02:20:37;102484.16;;;5.45;70.66
61394;BME280;48555;50.952;-0.120;2023-04-03T02:23:03;102483.31;;;5.43;70.58
61394;BME280;48555;50.952;-0.120;2023-04-03T02:25:30;102485.00;;;5.45;70.49
61394;BME280;48555;50.952;-0.120;2023-04-03T02:27:56;102478.00;;;5.49;70.22
61394;BME280;48555;50.952;-0.120;2023-04-03T02:30:21;102484.91;;;5.50;70.21
61394;BME280;48555;50.952;-0.120;2023-04-03T02:32:46;102476.22;;;5.51;70.03
61394;BME280;48555;50.952;-0.120;2023-04-03T02:35:12;102465.94;;;5.46;70.12
61394;BME280;48555;50.952;-0.120;2023-04-03T02:37:37;102465.84;;;5.51;70.03
61394;BME280;48555;50.952;-0.120;2023-04-03T02:40:04;102468.38;;;5.53;70.02
61394;BME280;48555;50.952;-0.120;2023-04-03T02:42:30;102475.31;;;5.52;69.89
61394;BME280;48555;50.952;-0.120;2023-04-03T02:44:55;102466.75;;;5.49;69.68
61394;BME280;48555;50.952;-0.120;2023-04-03T02:47:21;102469.34;;;5.49;69.43
61394;BME280;48555;50.952;-0.120;2023-04-03T02:49:46;102459.13;;;5.41;69.36
61394;BME280;48555;50.952;-0.120;2023-04-03T02:52:13;102476.38;;;5.43;69.19
61394;BME280;48555;50.952;-0.120;2023-04-03T02:54:38;102472.16;;;5.39;69.35
61394;BME280;48555;50.952;-0.120;2023-04-03T02:57:03;102471.31;;;5.39;69.37
61394;BME280;48555;50.952;-0.120;2023-04-03T02:59:29;102470.47;;;5.37;68.92
61394;BME280;48555;50.952;-0.120;2023-04-03T03:01:54;102467.97;;;5.32;68.95
61394;BME280;48555;50.952;-0.120;2023-04-03T03:04:21;102452.63;;;5.23;68.96
61394;BME280;48555;50.952;-0.120;2023-04-03T03:06:46;102464.66;;;5.27;69.04
61394;BME280;48555;50.952;-0.120;2023-04-03T03:09:12;102457.88;;;5.20;69.11
61394;BME280;48555;50.952;-0.120;2023-04-03T03:11:38;102463.97;;;5.17;69.01
61394;BME280;48555;50.952;-0.120;2023-04-03T03:14:04;102456.31;;;5.13;69.04
61394;BME280;48555;50.952;-0.120;2023-04-03T03:16:30;102458.84;;;5.16;68.70
61394;BME280;48555;50.952;-0.120;2023-04-03T03:18:55;102448.53;;;5.13;68.82
61394;BME280;48555;50.952;-0.120;2023-04-03T03:21:21;102459.75;;;5.15;68.86
61394;BME280;48555;50.952;-0.120;2023-04-03T03:23:46;102462.41;;;5.12;68.83
61394;BME280;48555;50.952;-0.120;2023-04-03T03:26:11;102456.38;;;5.10;68.82
61394;BME280;48555;50.952;-0.120;2023-04-03T03:28:38;102454.72;;;5.06;69.25
61394;BME280;48555;50.952;-0.120;2023-04-03T03:31:04;102455.69;;;5.01;69.19
61394;BME280;48555;50.952;-0.120;2023-04-03T03:33:30;102454.84;;;4.99;69.38
61394;BME280;48555;50.952;-0.120;2023-04-03T03:35:56;102462.63;;;5.01;69.44
61394;BME280;48555;50.952;-0.120;2023-04-03T03:38:22;102452.25;;;4.99;69.28
61394;BME280;48555;50.952;-0.120;2023-04-03T03:40:49;102453.88;;;5.05;69.15
61394;BME280;48555;50.952;-0.120;2023-04-03T03:43:15;102454.66;;;5.09;69.32
61394;BME280;48555;50.952;-0.120;2023-04-03T03:45:41;102452.13;;;5.06;69.19
61394;BME280;48555;50.952;-0.120;2023-04-03T03:48:06;102461.66;;;5.05;68.97
61394;BME280;48555;50.952;-0.120;2023-04-03T03:50:31;102455.59;;;5.06;69.01
61394;BME280;48555;50.952;-0.120;2023-04-03T03:52:57;102444.34;;;5.07;68.81
61394;BME280;48555;50.952;-0.120;2023-04-03T03:55:22;102449.53;;;5.07;68.84
61394;BME280;48555;50.952;-0.120;2023-04-03T03:57:47;102444.34;;;5.07;68.89
61394;BME280;48555;50.952;-0.120;2023-04-03T04:00:13;102450.22;;;5.15;68.82
61394;BME280;48555;50.952;-0.120;2023-04-03T04:02:39;102447.63;;;5.15;68.44
61394;BME280;48555;50.952;-0.120;2023-04-03T04:05:04;102443.34;;;5.13;68.66
61394;BME280;48555;50.952;-0.120;2023-04-03T04:07:29;102447.56;;;5.17;68.88
61394;BME280;48555;50.952;-0.120;2023-04-03T04:09:55;102450.16;;;5.17;68.48
61394;BME280;48555;50.952;-0.120;2023-04-03T04:12:20;102445.81;;;5.19;68.58
61394;BME280;48555;50.952;-0.120;2023-04-03T04:14:46;102454.34;;;5.24;68.67
61394;BME280;48555;50.952;-0.120;2023-04-03T04:17:13;102454.34;;;5.24;68.45
61394;BME280;48555;50.952;-0.120;2023-04-03T04:19:39;102446.56;;;5.24;68.75
61394;BME280;48555;50.952;-0.120;2023-04-03T04:22:04;102447.28;;;5.31;68.99
61394;BME280;48555;50.952;-0.120;2023-04-03T04:24:29;102447.22;;;5.34;68.76
61394;BME280;48555;50.952;-0.120;2023-04-03T04:26:55;102450.56;;;5.37;69.07
61394;BME280;48555;50.952;-0.120;2023-04-03T04:29:20;102451.41;;;5.39;68.75
61394;BME280;48555;50.952;-0.120;2023-04-03T04:31:45;102446.16;;;5.41;69.11
61394;BME280;48555;50.952;-0.120;2023-04-03T04:34:11;102446.97;;;5.44;69.30
61394;BME280;48555;50.952;-0.120;2023-04-03T04:36:38;102451.22;;;5.47;68.88
61394;BME280;48555;50.952;-0.120;2023-04-03T04:39:03;102447.78;;;5.46;68.97
61394;BME280;48555;50.952;-0.120;2023-04-03T04:41:29;102448.75;;;5.42;69.10
61394;BME280;48555;50.952;-0.120;2023-04-03T04:43:54;102448.88;;;5.36;68.86
61394;BME280;48555;50.952;-0.120;2023-04-03T04:46:19;102441.25;;;5.29;69.06
61394;BME280;48555;50.952;-0.120;2023-04-03T04:48:45;102446.56;;;5.24;69.17
61394;BME280;48555;50.952;-0.120;2023-04-03T04:51:11;102437.19;;;5.17;69.26
61394;BME280;48555;50.952;-0.120;2023-04-03T04:53:37;102443.22;;;5.17;69.16
61394;BME280;48555;50.952;-0.120;2023-04-03T04:56:03;102442.44;;;5.15;69.41
61394;BME280;48555;50.952;-0.120;2023-04-03T04:58:28;102436.41;;;5.15;69.24
61394;BME280;48555;50.952;-0.120;2023-04-03T05:01:07;102444.03;;;5.21;69.25
61394;BME280;48555;50.952;-0.120;2023-04-03T05:03:33;102439.84;;;5.14;69.06
61394;BME280;48555;50.952;-0.120;2023-04-03T05:05:59;102441.75;;;5.07;69.29
61394;BME280;48555;50.952;-0.120;2023-04-03T05:08:25;102439.22;;;5.03;69.34
61394;BME280;48555;50.952;-0.120;2023-04-03T05:10:50;102436.78;;;4.96;69.59
61394;BME280;48555;50.952;-0.120;2023-04-03T05:13:16;102437.66;;;4.95;69.72
61394;BME280;48555;50.952;-0.120;2023-04-03T05:15:42;102439.41;;;4.95;69.61
61394;BME280;48555;50.952;-0.120;2023-04-03T05:18:07;102443.75;;;4.94;69.77
61394;BME280;48555;50.952;-0.120;2023-04-03T05:20:33;102437.69;;;4.94;69.59
61394;BME280;48555;50.952;-0.120;2023-04-03T05:22:59;102440.28;;;4.94;69.57
61394;BME280;48555;50.952;-0.120;2023-04-03T05:25:25;102442.09;;;4.90;69.36
61394;BME280;48555;50.952;-0.120;2023-04-03T05:27:51;102439.50;;;4.90;69.54
61394;BME280;48555;50.952;-0.120;2023-04-03T05:30:17;102443.81;;;4.91;69.68
61394;BME280;48555;50.952;-0.120;2023-04-03T05:32:42;102444.66;;;4.92;69.71
61394;BME280;48555;50.952;-0.120;2023-04-03T05:35:08;102445.53;;;4.91;69.67
61394;BME280;48555;50.952;-0.120;2023-04-03T05:37:34;102444.72;;;4.89;70.04
61394;BME280;48555;50.952;-0.120;2023-04-03T05:39:59;102442.97;;;4.89;70.01
61394;BME280;48555;50.952;-0.120;2023-04-03T05:42:25;102447.28;;;4.90;69.98
61394;BME280;48555;50.952;-0.120;2023-04-03T05:44:51;102448.09;;;4.92;70.08
61394;BME280;48555;50.952;-0.120;2023-04-03T05:47:17;102448.06;;;4.94;70.47
61394;BME280;48555;50.952;-0.120;2023-04-03T05:49:42;102457.56;;;4.93;70.39
61394;BME280;48555;50.952;-0.120;2023-04-03T05:52:20;102458.44;;;4.94;70.61
61394;BME280;48555;50.952;-0.120;2023-04-03T05:54:46;102449.72;;;4.96;70.72
61394;BME280;48555;50.952;-0.120;2023-04-03T05:57:14;102459.19;;;5.00;71.04
61394;BME280;48555;50.952;-0.120;2023-04-03T05:59:41;102457.50;;;4.98;71.44
61394;BME280;48555;50.952;-0.120;2023-04-03T06:02:07;102461.69;;;5.04;71.45
61394;BME280;48555;50.952;-0.120;2023-04-03T06:04:32;102462.56;;;5.03;71.73
61394;BME280;48555;50.952;-0.120;2023-04-03T06:06:57;102453.06;;;5.03;71.97
61394;BME280;48555;50.952;-0.120;2023-04-03T06:09:26;102458.91;;;5.13;71.93
61394;BME280;48555;50.952;-0.120;2023-04-03T06:11:52;102460.59;;;5.14;72.00
61394;BME280;48555;50.952;-0.120;2023-04-03T06:14:18;102455.41;;;5.14;72.31
61394;BME280;48555;50.952;-0.120;2023-04-03T06:16:44;102468.16;;;5.24;72.23
61394;BME280;48555;50.952;-0.120;2023-04-03T06:19:10;102472.38;;;5.29;72.49
61394;BME280;48555;50.952;-0.120;2023-04-03T06:21:36;102473.06;;;5.37;72.88
61394;BME280;48555;50.952;-0.120;2023-04-03T06:24:05;102477.28;;;5.42;72.76
61394;BME280;48555;50.952;-0.120;2023-04-03T06:26:31;102469.50;;;5.42;72.84
61394;BME280;48555;50.952;-0.120;2023-04-03T06:28:57;102474.41;;;5.55;73.39
61394;BME280;48555;50.952;-0.120;2023-04-03T06:31:22;102481.13;;;5.63;73.29
61394;BME280;48555;50.952;-0.120;2023-04-03T06:33:48;102473.31;;;5.65;73.30
61394;BME280;48555;50.952;-0.120;2023-04-03T06:36:13;102474.78;;;5.75;73.55
61394;BME280;48555;50.952;-0.120;2023-04-03T06:38:38;102484.13;;;5.82;73.49
61394;BME280;48555;50.952;-0.120;2023-04-03T06:41:04;102468.53;;;5.84;73.96
61394;BME280;48555;50.952;-0.120;2023-04-03T06:43:30;102486.34;;;6.01;73.88
61394;BME280;48555;50.952;-0.120;2023-04-03T06:45:56;102488.56;;;6.14;74.02
61394;BME280;48555;50.952;-0.120;2023-04-03T06:48:22;102490.81;;;6.30;74.22
61394;BME280;48555;50.952;-0.120;2023-04-03T06:50:47;102485.28;;;6.42;73.89
61394;BME280;48555;50.952;-0.120;2023-04-03T06:53:12;102487.63;;;6.51;74.17
61394;BME280;48555;50.952;-0.120;2023-04-03T06:55:38;102483.09;;;6.59;74.12
61394;BME280;48555;50.952;-0.120;2023-04-03T06:58:04;102489.78;;;6.68;74.24
61394;BME280;48555;50.952;-0.120;2023-04-03T07:00:29;102493.06;;;6.75;74.38
61394;BME280;48555;50.952;-0.120;2023-04-03T07:02:55;102492.72;;;6.87;74.28
61394;BME280;48555;50.952;-0.120;2023-04-03T07:05:22;102496.72;;;6.99;74.62
61394;BME280;48555;50.952;-0.120;2023-04-03T07:07:48;102497.19;;;7.12;74.41
61394;BME280;48555;50.952;-0.120;2023-04-03T07:10:14;102499.47;;;7.24;74.68
61394;BME280;48555;50.952;-0.120;2023-04-03T07:12:40;102494.94;;;7.29;74.49
61394;BME280;48555;50.952;-0.120;2023-04-03T07:15:06;102502.41;;;7.41;74.50
61394;BME280;48555;50.952;-0.120;2023-04-03T07:17:32;102493.63;;;7.44;74.26
61394;BME280;48555;50.952;-0.120;2023-04-03T07:19:57;102490.78;;;7.53;73.88
61394;BME280;48555;50.952;-0.120;2023-04-03T07:22:22;102496.66;;;7.60;73.58
61394;BME280;48555;50.952;-0.120;2023-04-03T07:24:48;102491.00;;;7.73;73.93
61394;BME280;48555;50.952;-0.120;2023-04-03T07:27:13;102496.66;;;7.86;73.55
61394;BME280;48555;50.952;-0.120;2023-04-03T07:29:39;102492.06;;;7.94;73.15
61394;BME280;48555;50.952;-0.120;2023-04-03T07:32:04;102495.31;;;8.01;73.09
61394;BME280;48555;50.952;-0.120;2023-04-03T07:34:31;102490.75;;;8.08;72.63
61394;BME280;48555;50.952;-0.120;2023-04-03T07:36:57;102487.94;;;8.14;72.81
61394;BME280;48555;50.952;-0.120;2023-04-03T07:39:23;102489.34;;;8.24;72.44
61394;BME280;48555;50.952;-0.120;2023-04-03T07:41:48;102485.50;;;8.34;72.08
61394;BME280;48555;50.952;-0.120;2023-04-03T07:44:14;102491.19;;;8.47;72.04
61394;BME280;48555;50.952;-0.120;2023-04-03T07:46:39;102489.38;;;8.74;72.01
61394;BME280;48555;50.952;-0.120;2023-04-03T07:49:06;102491.53;;;9.10;71.70
61394;BME280;48555;50.952;-0.120;2023-04-03T07:51:31;102497.31;;;9.40;71.34
61394;BME280;48555;50.952;-0.120;2023-04-03T07:53:57;102494.66;;;9.64;70.68
61394;BME280;48555;50.952;-0.120;2023-04-03T07:56:23;102488.00;;;9.99;70.25
61394;BME280;48555;50.952;-0.120;2023-04-03T07:58:50;102491.47;;;10.42;69.49
61394;BME280;48555;50.952;-0.120;2023-04-03T08:01:15;102491.00;;;10.92;68.79
61394;BME280;48555;50.952;-0.120;2023-04-03T08:03:41;102493.00;;;11.25;66.88
61394;BME280;48555;50.952;-0.120;2023-04-03T08:06:07;102505.56;;;11.54;65.92
61394;BME280;48555;50.952;-0.120;2023-04-03T08:08:33;102493.19;;;11.94;63.87
61394;BME280;48555;50.952;-0.120;2023-04-03T08:11:00;102499.19;;;12.31;62.11
61394;BME280;48555;50.952;-0.120;2023-04-03T08:13:28;102493.13;;;12.64;61.51
61394;BME280;48555;50.952;-0.120;2023-04-03T08:15:53;102489.41;;;13.01;61.15
61394;BME280;48555;50.952;-0.120;2023-04-03T08:18:19;102504.28;;;13.34;60.09
61394;BME280;48555;50.952;-0.120;2023-04-03T08:20:46;102489.69;;;13.44;57.11
61394;BME280;48555;50.952;-0.120;2023-04-03T08:23:12;102494.50;;;13.68;57.12
61394;BME280;48555;50.952;-0.120;2023-04-03T08:25:39;102502.03;;;13.90;56.89
61394;BME280;48555;50.952;-0.120;2023-04-03T08:28:06;102491.44;;;14.05;56.61
61394;BME280;48555;50.952;-0.120;2023-04-03T08:30:32;102499.59;;;14.31;56.36
61394;BME280;48555;50.952;-0.120;2023-04-03T08:33:00;102488.03;;;14.34;54.70
61394;BME280;48555;50.952;-0.120;2023-04-03T08:35:27;102499.81;;;14.42;54.77
61394;BME280;48555;50.952;-0.120;2023-04-03T08:37:52;102487.41;;;14.44;54.56
61394;BME280;48555;50.952;-0.120;2023-04-03T08:40:17;102498.97;;;14.42;52.78
61394;BME280;48555;50.952;-0.120;2023-04-03T08:42:53;102498.47;;;14.49;53.55
61394;BME280;48555;50.952;-0.120;2023-04-03T08:48:23;102488.13;;;14.76;53.34
61394;BME280;48555;50.952;-0.120;2023-04-03T08:50:56;102495.44;;;14.86;53.23
61394;BME280;48555;50.952;-0.120;2023-04-03T08:53:25;102491.84;;;14.87;52.72
61394;BME280;48555;50.952;-0.120;2023-04-03T08:55:55;102488.75;;;14.80;52.35
61394;BME280;48555;50.952;-0.120;2023-04-03T08:58:24;102489.16;;;14.88;52.78
61394;BME280;48555;50.952;-0.120;2023-04-03T09:01:14;102485.94;;;14.83;51.33
61394;BME280;48555;50.952;-0.120;2023-04-03T09:03:42;102475.63;;;14.50;48.35
61394;BME280;48555;50.952;-0.120;2023-04-03T09:09:02;102480.56;;;13.97;48.27
61394;BME280;48555;50.952;-0.120;2023-04-03T09:11:37;102485.22;;;13.46;48.23
61394;BME280;48555;50.952;-0.120;2023-04-03T09:16:58;102482.75;;;12.45;48.85
61394;BME280;48555;50.952;-0.120;2023-04-03T09:21:57;102472.97;;;12.31;49.73
61394;BME280;48555;50.952;-0.120;2023-04-03T09:24:23;102472.91;;;12.33;50.36
61394;BME280;48555;50.952;-0.120;2023-04-03T09:26:54;102472.16;;;12.46;50.81
61394;BME280;48555;50.952;-0.120;2023-04-03T09:29:23;102474.06;;;12.44;49.86
61394;BME280;48555;50.952;-0.120;2023-04-03T09:31:53;102473.66;;;12.35;49.35
61394;BME280;48555;50.952;-0.120;2023-04-03T09:34:30;102470.72;;;12.23;50.40
61394;BME280;48555;50.952;-0.120;2023-04-03T09:36:59;102473.66;;;12.35;48.08
61394;BME280;48555;50.952;-0.120;2023-04-03T09:39:30;102474.06;;;11.92;49.66
61394;BME280;48555;50.952;-0.120;2023-04-03T09:42:05;102481.19;;;11.71;50.10
61394;BME280;48555;50.952;-0.120;2023-04-03T09:44:36;102468.78;;;11.75;49.78
61394;BME280;48555;50.952;-0.120;2023-04-03T09:47:22;102478.44;;;11.55;51.19
61394;BME280;48555;50.952;-0.120;2023-04-03T09:49:48;102478.38;;;11.57;51.64
61394;BME280;48555;50.952;-0.120;2023-04-03T09:52:25;102464.66;;;11.52;52.32
61394;BME280;48555;50.952;-0.120;2023-04-03T09:54:50;102476.06;;;11.51;51.66
61394;BME280;48555;50.952;-0.120;2023-04-03T09:57:16;102472.59;;;11.31;51.67
61394;BME280;48555;50.952;-0.120;2023-04-03T09:59:47;102478.97;;;11.26;52.76
61394;BME280;48555;50.952;-0.120;2023-04-03T10:02:33;102475.00;;;11.17;52.56
61394;BME280;48555;50.952;-0.120;2023-04-03T10:04:59;102477.03;;;11.12;52.88
61394;BME280;48555;50.952;-0.120;2023-04-03T10:07:34;102482.66;;;11.03;53.06
61394;BME280;48555;50.952;-0.120;2023-04-03T10:10:18;102479.78;;;11.09;53.05
61394;BME280;48555;50.952;-0.120;2023-04-03T10:12:45;102484.28;;;11.05;53.05
61394;BME280;48555;50.952;-0.120;2023-04-03T10:15:15;102483.44;;;11.05;52.81
61394;BME280;48555;50.952;-0.120;2023-04-03T10:17:55;102484.41;;;11.02;53.32
61394;BME280;48555;50.952;-0.120;2023-04-03T10:20:51;102499.22;;;11.03;52.75
61394;BME280;48555;50.952;-0.120;2023-04-03T10:28:35;102484.66;;;10.98;52.20
61394;BME280;48555;50.952;-0.120;2023-04-03T10:31:18;102473.25;;;10.99;52.58
61394;BME280;48555;50.952;-0.120;2023-04-03T10:33:59;102473.38;;;11.14;51.96
61394;BME280;48555;50.952;-0.120;2023-04-03T10:39:32;102465.31;;;11.74;51.12
61394;BME280;48555;50.952;-0.120;2023-04-03T10:47:37;102454.75;;;12.45;48.80
61394;BME280;48555;50.952;-0.120;2023-04-03T10:50:26;102457.34;;;12.63;49.46
61394;BME280;48555;50.952;-0.120;2023-04-03T10:53:03;102451.09;;;12.81;49.02
61394;BME280;48555;50.952;-0.120;2023-04-03T10:55:37;102450.47;;;12.76;48.73
61394;BME280;48555;50.952;-0.120;2023-04-03T10:58:38;102457.50;;;12.60;49.43
61394;BME280;48555;50.952;-0.120;2023-04-03T11:01:22;102456.06;;;12.37;50.04
61394;BME280;48555;50.952;-0.120;2023-04-03T11:03:54;102452.31;;;12.25;50.51
61394;BME280;48555;50.952;-0.120;2023-04-03T11:06:25;102456.00;;;12.38;50.81
61394;BME280;48555;50.952;-0.120;2023-04-03T11:08:55;102448.44;;;12.32;49.27
61394;BME280;48555;50.952;-0.120;2023-04-03T11:11:33;102446.50;;;12.36;49.52
61394;BME280;48555;50.952;-0.120;2023-04-03T11:14:01;102450.53;;;12.25;47.35
61394;BME280;48555;50.952;-0.120;2023-04-03T11:16:31;102445.91;;;12.31;47.50
61394;BME280;48555;50.952;-0.120;2023-04-03T11:24:05;102432.59;;;12.67;47.02
61394;BME280;48555;50.952;-0.120;2023-04-03T11:26:37;102444.16;;;12.80;46.56
61394;BME280;48555;50.952;-0.120;2023-04-03T11:29:09;102438.47;;;12.88;46.42
61394;BME280;48555;50.952;-0.120;2023-04-03T11:31:48;102440.75;;;12.94;45.63
61394;BME280;48555;50.952;-0.120;2023-04-03T11:36:56;102442.59;;;12.76;44.83
61394;BME280;48555;50.952;-0.120;2023-04-03T11:39:28;102424.50;;;12.71;44.95
61394;BME280;48555;50.952;-0.120;2023-04-03T11:41:55;102427.47;;;12.81;43.12
61394;BME280;48555;50.952;-0.120;2023-04-03T11:47:00;102423.72;;;12.69;42.66
61394;BME280;48555;50.952;-0.120;2023-04-03T11:49:51;102423.22;;;12.79;40.74
61394;BME280;48555;50.952;-0.120;2023-04-03T12:14:02;102401.03;;;12.84;43.22
61394;BME280;48555;50.952;-0.120;2023-04-03T12:24:26;102385.63;;;12.62;42.80
61394;BME280;48555;50.952;-0.120;2023-04-03T12:29:52;102370.72;;;12.79;43.52
61394;BME280;48555;50.952;-0.120;2023-04-03T12:48:39;102360.66;;;12.87;43.37
61394;BME280;48555;50.952;-0.120;2023-04-03T12:51:18;102367.78;;;13.01;43.09
61394;BME280;48555;50.952;-0.120;2023-04-03T12:53:45;102366.41;;;13.09;42.71
61394;BME280;48555;50.952;-0.120;2023-04-03T12:56:28;102360.88;;;13.14;42.59
61394;BME280;48555;50.952;-0.120;2023-04-03T12:58:57;102344.63;;;13.07;42.79
61394;BME280;48555;50.952;-0.120;2023-04-03T13:01:37;102353.09;;;13.12;43.34
61394;BME280;48555;50.952;-0.120;2023-04-03T13:04:02;102348.69;;;13.13;42.82
61394;BME280;48555;50.952;-0.120;2023-04-03T13:06:49;102339.06;;;12.98;43.50
61394;BME280;48555;50.952;-0.120;2023-04-03T13:09:35;102334.09;;;13.23;43.57
61394;BME280;48555;50.952;-0.120;2023-04-03T13:12:11;102336.63;;;13.40;43.03
61394;BME280;48555;50.952;-0.120;2023-04-03T13:14:37;102332.13;;;13.43;44.49
61394;BME280;48555;50.952;-0.120;2023-04-03T13:17:16;102331.47;;;13.39;43.39
61394;BME280;48555;50.952;-0.120;2023-04-03T13:19:42;102334.13;;;13.53;43.70
61394;BME280;48555;50.952;-0.120;2023-04-03T13:22:29;102333.19;;;13.54;42.84
61394;BME280;48555;50.952;-0.120;2023-04-03T13:24:59;102327.94;;;13.54;43.38
61394;BME280;48555;50.952;-0.120;2023-04-03T13:27:28;102326.25;;;13.53;43.01
61394;BME280;48555;50.952;-0.120;2023-04-03T13:29:57;102320.13;;;13.53;42.44
61394;BME280;48555;50.952;-0.120;2023-04-03T13:32:27;102321.91;;;13.52;42.57
61394;BME280;48555;50.952;-0.120;2023-04-03T13:34:53;102307.28;;;13.48;42.25
61394;BME280;48555;50.952;-0.120;2023-04-03T13:37:28;102319.22;;;13.54;41.91
61394;BME280;48555;50.952;-0.120;2023-04-03T13:42:32;102305.91;;;13.41;41.25
61394;BME280;48555;50.952;-0.120;2023-04-03T13:45:23;102303.28;;;13.41;41.80
61394;BME280;48555;50.952;-0.120;2023-04-03T13:47:52;102306.41;;;13.33;41.68
61394;BME280;48555;50.952;-0.120;2023-04-03T13:50:21;102298.19;;;13.24;42.17
61394;BME280;48555;50.952;-0.120;2023-04-03T13:53:11;102294.69;;;13.39;41.92
61394;BME280;48555;50.952;-0.120;2023-04-03T13:56:36;102301.91;;;13.35;42.34
61394;BME280;48555;50.952;-0.120;2023-04-03T13:58:36;102294.22;;;13.47;42.93
61394;BME280;48555;50.952;-0.120;2023-04-03T14:01:18;102290.94;;;13.57;42.51
61394;BME280;48555;50.952;-0.120;2023-04-03T14:03:58;102274.34;;;13.57;42.44
61394;BME280;48555;50.952;-0.120;2023-04-03T14:06:24;102279.13;;;13.64;42.53
61394;BME280;48555;50.952;-0.120;2023-04-03T14:08:49;102276.50;;;13.64;42.49
61394;BME280;48555;50.952;-0.120;2023-04-03T14:11:33;102288.78;;;13.64;43.00
61394;BME280;48555;50.952;-0.120;2023-04-03T14:14:01;102283.28;;;13.69;42.98
61394;BME280;48555;50.952;-0.120;2023-04-03T14:16:31;102274.34;;;13.57;41.26
61394;BME280;48555;50.952;-0.120;2023-04-03T14:18:57;102264.66;;;13.57;41.16
61394;BME280;48555;50.952;-0.120;2023-04-03T14:21:23;102272.09;;;13.65;42.42